createdAt,value
2022-10-04T00:01:58.729Z,99.90
2022-10-04T00:04:41.923Z,99.90
2022-10-04T00:07:11.593Z,99.90
2022-10-04T00:09:52.200Z,99.90
2022-10-04T00:12:27.086Z,99.90
2022-10-04T00:14:57.496Z,99.90
2022-10-04T00:17:27.773Z,99.90
2022-10-04T00:19:56.163Z,99.90
2022-10-04T00:22:33.060Z,99.90
2022-10-04T00:25:02.745Z,99.90
2022-10-04T00:27:29.602Z,99.90
2022-10-04T00:30:02.222Z,99.90
2022-10-04T00:32:41.226Z,99.90
2022-10-04T00:35:26.264Z,99.90
2022-10-04T00:38:00.475Z,99.90
2022-10-04T00:40:31.533Z,99.90
2022-10-04T00:43:02.162Z,99.90
2022-10-04T00:45:52.065Z,99.90
2022-10-04T00:48:31.769Z,99.90
2022-10-04T00:51:00.543Z,99.90
2022-10-04T00:53:37.966Z,99.90
2022-10-04T00:56:09.610Z,99.90
2022-10-04T00:59:03.622Z,99.90
2022-10-04T01:01:35.469Z,99.90
2022-10-04T01:04:06.831Z,99.90
2022-10-04T01:06:35.802Z,99.90
2022-10-04T01:09:07.344Z,99.90
2022-10-04T01:11:51.467Z,99.90
2022-10-04T01:14:31.520Z,99.90
2022-10-04T01:16:58.220Z,99.90
2022-10-04T01:19:24.835Z,99.90
2022-10-04T01:22:17.960Z,99.90
2022-10-04T01:24:45.993Z,99.90
2022-10-04T01:27:32.597Z,99.90
2022-10-04T01:30:00.594Z,99.90
2022-10-04T01:32:27.577Z,99.90
2022-10-04T01:34:55.587Z,99.90
2022-10-04T01:37:22.339Z,99.90
2022-10-04T01:39:49.250Z,99.90
2022-10-04T01:42:25.820Z,99.90
2022-10-04T01:45:17.850Z,99.90
2022-10-04T01:47:47.302Z,99.90
2022-10-04T01:50:21.000Z,99.90
2022-10-04T01:52:51.898Z,99.90
2022-10-04T01:55:30.703Z,99.90
2022-10-04T01:58:17.811Z,99.90
2022-10-04T02:00:55.374Z,99.90
2022-10-04T02:03:34.058Z,99.90
2022-10-04T02:06:04.547Z,99.90
2022-10-04T02:08:38.639Z,99.90
2022-10-04T02:11:06.736Z,99.90
2022-10-04T02:13:40.145Z,99.90
2022-10-04T02:16:11.947Z,99.90
2022-10-04T02:18:40.331Z,99.90
2022-10-04T02:21:08.158Z,99.90
2022-10-04T02:23:37.014Z,99.90
2022-10-04T02:26:08.594Z,99.90
2022-10-04T02:28:36.815Z,99.90
2022-10-04T02:31:23.788Z,99.90
2022-10-04T02:33:55.350Z,99.90
2022-10-04T02:36:26.572Z,99.90
2022-10-04T02:39:03.711Z,99.90
2022-10-04T02:41:35.775Z,99.90
2022-10-04T02:44:12.309Z,99.90
2022-10-04T02:46:54.517Z,99.90
2022-10-04T02:49:33.115Z,99.90
2022-10-04T02:52:09.994Z,99.90
2022-10-04T02:54:45.562Z,99.90
2022-10-04T02:57:17.122Z,99.90
2022-10-04T02:59:44.219Z,99.90
2022-10-04T03:02:29.068Z,99.90
2022-10-04T03:05:04.110Z,99.90
2022-10-04T03:07:33.499Z,99.90
2022-10-04T03:10:02.015Z,99.90
2022-10-04T03:12:28.866Z,99.90
2022-10-04T03:14:55.734Z,99.90
2022-10-04T03:17:23.852Z,99.90
2022-10-04T03:19:50.695Z,99.90
2022-10-04T03:22:18.367Z,99.90
2022-10-04T03:24:55.256Z,99.90
2022-10-04T03:27:25.757Z,99.90
2022-10-04T03:29:58.334Z,99.90
2022-10-04T03:32:30.721Z,99.90
2022-10-04T03:35:00.582Z,99.90
2022-10-04T03:37:30.777Z,99.90
2022-10-04T03:39:58.794Z,99.90
2022-10-04T03:42:31.548Z,99.90
2022-10-04T03:45:02.630Z,99.90
2022-10-04T03:47:36.105Z,99.90
2022-10-04T03:50:12.941Z,99.90
2022-10-04T03:52:44.037Z,99.90
2022-10-04T03:55:15.135Z,99.90
2022-10-04T03:57:42.287Z,99.90
2022-10-04T04:00:09.497Z,99.90
2022-10-04T04:02:46.238Z,99.90
2022-10-04T04:05:21.671Z,99.90
2022-10-04T04:08:06.996Z,99.90
2022-10-04T04:10:41.997Z,99.90
2022-10-04T04:13:11.583Z,99.90
2022-10-04T04:15:43.327Z,99.90
2022-10-04T04:18:21.248Z,99.90
2022-10-04T04:20:50.013Z,99.90
2022-10-04T04:23:35.088Z,99.90
2022-10-04T04:26:14.502Z,99.90
2022-10-04T04:28:49.078Z,99.90
2022-10-04T04:31:29.841Z,99.90
2022-10-04T04:34:02.932Z,99.90
2022-10-04T04:36:40.402Z,99.90
2022-10-04T04:39:41.027Z,99.90
2022-10-04T04:42:10.511Z,99.90
2022-10-04T04:45:03.065Z,99.90
2022-10-04T04:47:33.992Z,99.90
2022-10-04T04:50:23.778Z,99.90
2022-10-04T04:52:54.878Z,99.90
2022-10-04T04:55:27.911Z,99.90
2022-10-04T04:57:58.116Z,99.90
2022-10-04T05:00:31.858Z,99.90
2022-10-04T05:03:00.673Z,99.90
2022-10-04T05:05:32.533Z,99.90
2022-10-04T05:08:28.109Z,99.90
2022-10-04T05:11:27.010Z,99.90
2022-10-04T05:13:56.999Z,99.90
2022-10-04T05:16:31.763Z,99.90
2022-10-04T05:19:05.906Z,99.90
2022-10-04T05:21:34.689Z,99.90
2022-10-04T05:24:22.486Z,99.90
2022-10-04T05:27:01.470Z,99.90
2022-10-04T05:29:32.618Z,99.90
2022-10-04T05:32:02.952Z,99.90
2022-10-04T05:34:38.113Z,99.90
2022-10-04T05:37:24.208Z,99.90
2022-10-04T05:40:20.421Z,99.90
2022-10-04T05:42:47.126Z,99.90
2022-10-04T05:45:34.209Z,99.90
2022-10-04T05:48:02.290Z,99.90
2022-10-04T05:50:35.832Z,99.90
2022-10-04T05:53:27.624Z,99.90
2022-10-04T05:56:19.690Z,99.90
2022-10-04T05:59:31.739Z,99.90
2022-10-04T06:02:17.045Z,99.90
2022-10-04T06:04:49.323Z,99.90
2022-10-04T06:07:23.847Z,99.90
2022-10-04T06:10:03.434Z,99.90
2022-10-04T06:13:08.667Z,99.90
2022-10-04T06:15:52.812Z,99.90
2022-10-04T06:18:19.516Z,99.90
2022-10-04T06:20:46.263Z,99.90
2022-10-04T06:23:18.608Z,99.90
2022-10-04T06:25:56.137Z,99.90
2022-10-04T06:28:36.232Z,99.90
2022-10-04T06:31:27.249Z,99.90
2022-10-04T06:34:08.986Z,99.90
2022-10-04T06:36:35.782Z,99.90
2022-10-04T06:39:21.250Z,99.90
2022-10-04T06:42:00.940Z,99.90
2022-10-04T06:45:06.066Z,99.90
2022-10-04T06:47:35.959Z,99.90
2022-10-04T06:50:21.156Z,99.90
2022-10-04T06:53:20.613Z,99.90
2022-10-04T06:56:16.494Z,99.90
2022-10-04T06:58:46.040Z,99.90
2022-10-04T07:01:33.101Z,99.90
2022-10-04T07:04:20.233Z,99.90
2022-10-04T07:07:20.661Z,99.90
2022-10-04T07:09:48.961Z,99.90
2022-10-04T07:12:17.624Z,99.90
2022-10-04T07:14:52.464Z,99.90
2022-10-04T07:17:30.454Z,99.90
2022-10-04T07:19:59.871Z,99.90
2022-10-04T07:22:36.213Z,99.90
2022-10-04T07:25:28.988Z,99.90
2022-10-04T07:28:19.913Z,99.90
2022-10-04T07:31:03.834Z,99.90
2022-10-04T07:33:35.726Z,99.90
2022-10-04T07:36:22.132Z,99.90
2022-10-04T07:38:58.303Z,99.90
2022-10-04T07:41:31.776Z,99.90
2022-10-04T07:44:24.830Z,99.90
2022-10-04T07:47:03.543Z,99.90
2022-10-04T07:49:38.809Z,99.90
2022-10-04T07:52:26.423Z,99.90
2022-10-04T07:55:07.939Z,99.90
2022-10-04T07:57:50.357Z,99.90
2022-10-04T08:00:37.034Z,99.90
2022-10-04T08:03:24.907Z,99.90
2022-10-04T08:06:21.230Z,99.90
2022-10-04T08:09:29.193Z,99.90
2022-10-04T08:12:07.631Z,99.90
2022-10-04T08:14:52.473Z,99.90
2022-10-04T08:17:45.299Z,99.90
2022-10-04T08:20:21.288Z,99.90
2022-10-04T08:23:06.713Z,99.90
2022-10-04T08:25:55.117Z,99.90
2022-10-04T08:28:52.527Z,99.90
2022-10-04T08:31:39.313Z,99.90
2022-10-04T08:34:44.903Z,99.90
2022-10-04T08:37:21.638Z,99.90
2022-10-04T08:40:13.135Z,99.90
2022-10-04T08:43:09.501Z,99.90
2022-10-04T08:46:09.574Z,99.90
2022-10-04T08:48:48.466Z,99.90
2022-10-04T08:51:33.865Z,99.90
2022-10-04T08:54:04.013Z,99.90
2022-10-04T08:56:55.075Z,99.90
2022-10-04T08:59:36.961Z,99.90
2022-10-04T09:02:22.634Z,99.90
2022-10-04T09:05:07.495Z,99.90
2022-10-04T09:08:05.683Z,99.90
2022-10-04T09:10:39.238Z,99.90
2022-10-04T09:13:22.329Z,99.90
2022-10-04T09:15:53.780Z,99.90
2022-10-04T09:18:40.653Z,99.90
2022-10-04T09:21:22.034Z,99.90
2022-10-04T09:23:57.871Z,99.90
2022-10-04T09:26:33.248Z,99.90
2022-10-04T09:29:15.225Z,99.90
2022-10-04T09:32:26.619Z,99.90
2022-10-04T09:35:11.729Z,99.90
2022-10-04T09:38:02.892Z,99.90
2022-10-04T09:40:53.488Z,99.90
2022-10-04T09:43:42.346Z,99.90
2022-10-04T09:46:29.675Z,99.90
2022-10-04T09:49:08.142Z,99.90
2022-10-04T09:51:59.512Z,99.90
2022-10-04T09:54:48.758Z,99.90
2022-10-04T09:57:44.782Z,99.90
2022-10-04T10:00:22.091Z,99.90
2022-10-04T10:03:15.725Z,99.70
2022-10-04T10:06:04.347Z,99.30
2022-10-04T10:08:37.145Z,99.00
2022-10-04T10:11:31.383Z,95.80
2022-10-04T10:14:34.977Z,96.50
2022-10-04T10:17:16.154Z,93.60
2022-10-04T10:19:53.776Z,93.00
2022-10-04T10:22:45.583Z,93.40
2022-10-04T10:25:29.710Z,92.60
2022-10-04T10:28:14.937Z,90.60
2022-10-04T10:31:05.916Z,90.90
2022-10-04T10:33:47.455Z,90.50
2022-10-04T10:36:43.021Z,87.80
2022-10-04T10:39:42.710Z,82.10
2022-10-04T10:42:27.346Z,81.30
2022-10-04T10:45:21.168Z,77.60
2022-10-04T10:48:22.141Z,75.50
2022-10-04T10:51:10.763Z,78.50
2022-10-04T10:54:08.266Z,72.30
2022-10-04T10:56:56.740Z,67.90
2022-10-04T10:59:50.950Z,66.30
2022-10-04T11:03:07.135Z,66.40
2022-10-04T11:05:45.678Z,68.50
2022-10-04T11:08:49.751Z,66.40
2022-10-04T11:11:34.350Z,65.70
2022-10-04T11:14:19.319Z,64.80
2022-10-04T11:17:03.964Z,65.70
2022-10-04T11:20:05.604Z,61.10
2022-10-04T11:23:09.422Z,61.80
2022-10-04T11:25:46.318Z,57.60
2022-10-04T11:28:28.709Z,56.10
2022-10-04T11:31:45.757Z,54.90
2022-10-04T11:34:18.464Z,50.90
2022-10-04T11:37:03.195Z,52.50
2022-10-04T11:39:54.935Z,50.30
2022-10-04T11:42:38.859Z,49.00
2022-10-04T11:45:34.063Z,49.90
2022-10-04T11:48:27.908Z,48.90
2022-10-04T11:51:18.873Z,47.50
2022-10-04T11:54:10.072Z,48.00
2022-10-04T11:56:45.695Z,48.30
2022-10-04T11:59:39.281Z,46.80
2022-10-04T12:02:33.459Z,46.20
2022-10-04T12:05:07.137Z,46.20
2022-10-04T12:07:50.483Z,45.50
2022-10-04T12:10:23.187Z,44.80
2022-10-04T12:13:35.228Z,46.30
2022-10-04T12:16:38.979Z,42.50
2022-10-04T12:19:32.483Z,42.20
2022-10-04T12:22:17.445Z,41.20
2022-10-04T12:25:08.168Z,41.10
2022-10-04T12:28:11.337Z,40.40
2022-10-04T12:31:04.971Z,39.20
2022-10-04T12:33:54.060Z,39.20
2022-10-04T12:36:29.307Z,38.00
2022-10-04T12:39:32.757Z,37.70
2022-10-04T12:42:21.586Z,36.00
2022-10-04T12:44:57.272Z,36.40
2022-10-04T12:47:50.467Z,35.20
2022-10-04T12:50:31.474Z,33.50
2022-10-04T12:53:14.526Z,34.50
2022-10-04T12:55:46.130Z,34.40
2022-10-04T12:58:26.825Z,33.90
2022-10-04T13:01:01.398Z,33.70
2022-10-04T13:03:33.983Z,34.10
2022-10-04T13:06:20.402Z,32.20
2022-10-04T13:09:07.674Z,31.80
2022-10-04T13:11:43.695Z,31.40
2022-10-04T13:14:16.483Z,30.80
2022-10-04T13:19:56.371Z,29.50
2022-10-04T13:23:02.571Z,28.90
2022-10-04T13:25:56.324Z,27.30
2022-10-04T13:28:33.698Z,26.70
2022-10-04T13:31:24.440Z,26.00
2022-10-04T13:34:20.159Z,25.30
2022-10-04T13:36:49.846Z,24.00
2022-10-04T13:39:30.682Z,23.30
2022-10-04T13:42:15.292Z,22.90
2022-10-04T13:44:42.051Z,22.60
2022-10-04T13:47:20.721Z,21.90
2022-10-04T13:50:15.283Z,21.30
2022-10-04T13:53:08.777Z,20.40
2022-10-04T13:56:00.416Z,20.30
2022-10-04T13:58:41.882Z,19.30
2022-10-04T14:01:37.852Z,18.20
2022-10-04T14:04:27.490Z,18.40
2022-10-04T14:07:30.399Z,18.40
2022-10-04T14:10:15.897Z,18.60
2022-10-04T14:13:29.815Z,18.60
2022-10-04T14:16:35.585Z,20.30
2022-10-04T14:19:35.973Z,21.30
2022-10-04T14:22:11.917Z,22.40
2022-10-04T14:25:13.376Z,23.50
2022-10-04T14:28:14.085Z,24.10
2022-10-04T14:30:49.631Z,25.30
2022-10-04T14:33:32.039Z,26.10
2022-10-04T14:36:20.309Z,26.80
2022-10-04T14:39:13.775Z,27.80
2022-10-04T14:42:19.572Z,28.70
2022-10-04T14:45:12.653Z,29.60
2022-10-04T14:48:06.693Z,30.20
2022-10-04T14:50:44.330Z,31.00
2022-10-04T14:53:30.199Z,31.80
2022-10-04T14:56:11.862Z,32.00
2022-10-04T14:59:16.947Z,32.30
2022-10-04T15:02:05.425Z,32.80
2022-10-04T15:05:16.837Z,33.50
2022-10-04T15:07:58.588Z,34.10
2022-10-04T15:10:35.748Z,34.40
2022-10-04T15:13:34.313Z,35.10
2022-10-04T15:16:16.532Z,35.20
2022-10-04T15:19:07.859Z,36.00
2022-10-04T15:21:59.418Z,37.00
2022-10-04T15:24:48.891Z,37.90
2022-10-04T15:27:33.693Z,38.80
2022-10-04T15:30:22.656Z,38.90
2022-10-04T15:33:15.056Z,39.30
2022-10-04T15:36:00.412Z,40.00
2022-10-04T15:38:53.703Z,40.30
2022-10-04T15:41:45.870Z,41.70
2022-10-04T15:44:54.576Z,40.50
2022-10-04T15:47:44.270Z,41.00
2022-10-04T15:50:36.057Z,42.40
2022-10-04T15:53:20.243Z,43.10
2022-10-04T15:56:13.254Z,42.90
2022-10-04T15:58:50.660Z,44.60
2022-10-04T16:01:49.212Z,46.00
2022-10-04T16:04:40.720Z,47.50
2022-10-04T16:07:07.379Z,47.10
2022-10-04T16:09:43.659Z,47.30
2022-10-04T16:12:35.866Z,48.00
2022-10-04T16:15:34.246Z,49.40
2022-10-04T16:18:12.260Z,50.60
2022-10-04T16:21:19.866Z,51.20
2022-10-04T16:23:46.597Z,51.20
2022-10-04T16:26:33.916Z,52.40
2022-10-04T16:29:31.546Z,52.90
2022-10-04T16:32:04.140Z,54.40
2022-10-04T16:35:05.527Z,55.50
2022-10-04T16:38:20.711Z,56.30
2022-10-04T16:40:59.871Z,58.50
2022-10-04T16:43:29.536Z,59.10
2022-10-04T16:46:25.102Z,60.00
2022-10-04T16:49:22.896Z,61.30
2022-10-04T16:51:55.147Z,64.70
2022-10-04T16:54:49.669Z,67.00
2022-10-04T16:57:22.485Z,68.00
2022-10-04T17:00:00.814Z,70.30
2022-10-04T17:02:33.707Z,74.40
2022-10-04T17:05:37.128Z,76.20
2022-10-04T17:08:10.928Z,78.60
2022-10-04T17:11:00.390Z,79.90
2022-10-04T17:13:57.590Z,82.00
2022-10-04T17:16:46.858Z,80.50
2022-10-04T17:19:35.638Z,82.30
2022-10-04T17:22:10.708Z,80.40
2022-10-04T17:25:03.421Z,83.30
2022-10-04T17:27:39.299Z,81.10
2022-10-04T17:30:18.489Z,78.80
2022-10-04T17:32:55.050Z,79.70
2022-10-04T17:35:47.031Z,73.50
2022-10-04T17:38:40.008Z,71.70
2022-10-04T17:41:19.153Z,66.40
2022-10-04T17:44:07.425Z,59.90
2022-10-04T17:46:47.752Z,58.50
2022-10-04T17:50:11.246Z,58.20
2022-10-04T17:53:05.922Z,58.20
2022-10-04T17:55:51.674Z,57.90
2022-10-04T17:58:24.293Z,57.50
2022-10-04T18:01:08.292Z,57.80
2022-10-04T18:03:43.996Z,57.30
2022-10-04T18:06:45.466Z,57.40
2022-10-04T18:09:29.867Z,56.00
2022-10-04T18:12:10.577Z,57.10
2022-10-04T18:14:37.822Z,57.10
2022-10-04T18:17:08.173Z,57.50
2022-10-04T18:19:43.990Z,57.90
2022-10-04T18:22:21.177Z,58.20
2022-10-04T18:25:23.491Z,59.20
2022-10-04T18:28:08.458Z,60.70
2022-10-04T18:30:53.844Z,62.60
2022-10-04T18:33:26.373Z,65.60
2022-10-04T18:36:14.064Z,68.00
2022-10-04T18:38:49.133Z,71.30
2022-10-04T18:41:15.749Z,72.80
2022-10-04T18:44:00.303Z,74.80
2022-10-04T18:46:38.948Z,76.90
2022-10-04T18:49:17.272Z,78.50
2022-10-04T18:52:07.280Z,80.60
2022-10-04T18:54:56.016Z,82.40
2022-10-04T18:57:56.812Z,83.20
2022-10-04T19:00:42.482Z,83.80
2022-10-04T19:03:38.273Z,84.70
2022-10-04T19:06:30.973Z,83.70
2022-10-04T19:09:06.536Z,85.80
2022-10-04T19:11:49.459Z,86.50
2022-10-04T19:14:58.347Z,88.50
2022-10-04T19:17:43.887Z,91.30
2022-10-04T19:20:19.299Z,90.70
2022-10-04T19:23:32.773Z,91.00
2022-10-04T19:26:31.254Z,91.50
2022-10-04T19:29:10.839Z,92.10
2022-10-04T19:32:02.795Z,92.70
2022-10-04T19:35:05.157Z,93.60
2022-10-04T19:37:40.271Z,94.00
2022-10-04T19:40:40.567Z,95.00
2022-10-04T19:43:15.712Z,95.90
2022-10-04T19:46:06.452Z,96.40
2022-10-04T19:48:41.885Z,96.40
2022-10-04T19:51:45.495Z,96.70
2022-10-04T19:54:21.335Z,97.00
2022-10-04T19:56:50.282Z,97.60
2022-10-04T19:59:21.753Z,98.10
2022-10-04T20:01:49.815Z,98.80
2022-10-04T20:04:36.346Z,99.20
2022-10-04T20:07:11.553Z,99.60
2022-10-04T20:09:41.224Z,99.90
2022-10-04T20:12:33.016Z,99.90
2022-10-04T20:15:27.425Z,99.90
2022-10-04T20:17:54.998Z,99.90
2022-10-04T20:23:39.128Z,99.90
2022-10-04T20:26:53.803Z,99.90
2022-10-04T20:29:39.172Z,99.90
2022-10-04T20:32:36.306Z,99.90
2022-10-04T20:35:06.028Z,99.90
2022-10-04T20:37:44.887Z,99.90
2022-10-04T20:40:40.530Z,99.90
2022-10-04T20:43:13.262Z,99.90
2022-10-04T20:45:48.816Z,99.90
2022-10-04T20:48:23.982Z,99.90
2022-10-04T20:50:51.651Z,99.90
2022-10-04T20:53:24.959Z,99.90
2022-10-04T20:56:08.099Z,99.90
2022-10-04T20:58:35.847Z,99.90
2022-10-04T21:01:38.352Z,99.90
2022-10-04T21:04:30.317Z,99.90
2022-10-04T21:06:59.173Z,99.90
2022-10-04T21:09:29.945Z,99.90
2022-10-04T21:11:57.852Z,99.90
2022-10-04T21:14:35.595Z,99.90
2022-10-04T21:17:04.884Z,99.90
2022-10-04T21:19:38.789Z,99.90
2022-10-04T21:22:10.428Z,99.90
2022-10-04T21:24:54.106Z,99.90
2022-10-04T21:27:43.346Z,99.90
2022-10-04T21:30:22.975Z,99.90
2022-10-04T21:32:49.710Z,99.90
2022-10-04T21:35:16.467Z,99.90
2022-10-04T21:37:43.205Z,99.90
2022-10-04T21:40:10.376Z,99.90
2022-10-04T21:42:37.067Z,99.90
2022-10-04T21:45:04.123Z,99.90
2022-10-04T21:47:30.801Z,99.90
2022-10-04T21:49:57.461Z,99.90
2022-10-04T21:52:24.200Z,99.90
2022-10-04T21:54:50.898Z,99.90
2022-10-04T21:57:17.653Z,99.90
2022-10-04T21:59:44.324Z,99.90
2022-10-04T22:02:11.038Z,99.90
2022-10-04T22:04:38.285Z,99.90
2022-10-04T22:07:05.135Z,99.90
2022-10-04T22:09:33.144Z,99.90
2022-10-04T22:11:59.854Z,99.90
2022-10-04T22:14:26.592Z,99.90
2022-10-04T22:16:53.417Z,99.90
2022-10-04T22:19:20.171Z,99.90
2022-10-04T22:21:46.927Z,99.90
2022-10-04T22:24:19.091Z,99.90
2022-10-04T22:26:46.455Z,99.90
2022-10-04T22:29:15.776Z,99.90
2022-10-04T22:31:46.598Z,99.90
2022-10-04T22:34:19.136Z,99.90
2022-10-04T22:36:46.671Z,99.90
2022-10-04T22:39:18.636Z,99.90
2022-10-04T22:41:53.227Z,99.90
2022-10-04T22:44:37.489Z,99.90
2022-10-04T22:47:09.941Z,99.90
2022-10-04T22:49:38.695Z,99.90
2022-10-04T22:52:17.177Z,99.90
2022-10-04T22:54:46.762Z,99.90
2022-10-04T22:57:16.371Z,99.90
2022-10-04T22:59:46.125Z,99.90
2022-10-04T23:02:20.056Z,99.90
2022-10-04T23:04:52.271Z,99.90
2022-10-04T23:07:19.976Z,99.90
2022-10-04T23:09:47.192Z,99.90
2022-10-04T23:12:14.005Z,99.90
2022-10-04T23:14:41.653Z,99.90
2022-10-04T23:17:33.606Z,99.90
2022-10-04T23:20:14.212Z,99.90
2022-10-04T23:22:46.905Z,99.90
2022-10-04T23:25:23.991Z,99.90
2022-10-04T23:27:50.828Z,99.90
2022-10-04T23:30:22.683Z,99.90
2022-10-04T23:32:51.905Z,99.90
2022-10-04T23:35:25.333Z,99.90
2022-10-04T23:37:53.549Z,99.90
2022-10-04T23:40:22.021Z,99.90
2022-10-04T23:42:51.573Z,99.90
2022-10-04T23:45:21.742Z,99.90
2022-10-04T23:47:52.035Z,99.90
2022-10-04T23:50:22.016Z,99.90
2022-10-04T23:52:51.757Z,99.90
2022-10-04T23:55:20.977Z,99.90
2022-10-04T23:57:48.097Z,99.90
